Time;durP1;ratioP1;P1;durP2;ratioP2;P2;SDS_P1;SDS_P2;PMS_P1;PMS_P2;Temp;Humidity;BMP_temperature;BMP_pressure;BME280_temperature;BME280_humidity;BME280_pressure;Samples;Min_cycle;Max_cycle;Signal;HPM_P1;HPM_P2
2023/08/24 00:01:52;;;;;;;4.60;1.25;;;;;;;15.68;76.37;100842.50;5011976;28;20056;-45
2023/08/24 00:04:19;;;;;;;6.25;1.83;;;;;;;15.66;76.57;100836.50;5011637;28;20042;-46
2023/08/24 00:06:46;;;;;;;8.25;2.22;;;;;;;15.63;76.63;100828.88;5010695;28;20046;-45
2023/08/24 00:09:15;;;;;;;6.95;1.55;;;;;;;15.63;76.85;100828.06;5010553;28;20053;-45
2023/08/24 00:11:42;;;;;;;3.08;1.33;;;;;;;15.64;76.97;100826.88;5011758;28;20449;-45
2023/08/24 00:14:09;;;;;;;2.88;1.45;;;;;;;15.61;76.98;100827.63;5010647;28;20045;-46
2023/08/24 00:16:36;;;;;;;9.85;2.20;;;;;;;15.62;77.17;100826.47;5011747;28;20042;-45
2023/08/24 00:19:03;;;;;;;9.45;1.65;;;;;;;15.59;77.39;100832.78;5011868;28;20049;-47
2023/08/24 00:21:30;;;;;;;7.93;1.73;;;;;;;15.57;77.62;100835.13;5012133;28;20125;-45
2023/08/24 00:23:57;;;;;;;6.20;1.48;;;;;;;15.57;77.50;100832.34;5011523;28;20507;-47
2023/08/24 00:26:23;;;;;;;7.07;2.00;;;;;;;15.56;77.71;100834.34;5010261;28;20070;-45
2023/08/24 00:28:50;;;;;;;7.80;1.67;;;;;;;15.55;78.03;100829.94;5011664;28;20049;-45
2023/08/24 00:31:18;;;;;;;5.57;1.70;;;;;;;15.57;78.06;100823.97;5010255;28;20096;-47
2023/08/24 00:33:45;;;;;;;7.53;2.05;;;;;;;15.56;78.11;100822.38;5011618;28;20054;-45
2023/08/24 00:36:12;;;;;;;5.93;1.30;;;;;;;15.53;78.31;100823.13;5011400;28;20128;-46
2023/08/24 00:38:39;;;;;;;8.30;2.50;;;;;;;15.46;78.45;100814.66;5012069;28;20046;-45
2023/08/24 00:41:06;;;;;;;4.63;1.30;;;;;;;15.40;78.70;100802.19;5011324;28;20052;-46
2023/08/24 00:43:32;;;;;;;11.15;1.60;;;;;;;15.39;78.90;100800.56;5011508;28;20061;-45
2023/08/24 00:46:00;;;;;;;5.70;1.77;;;;;;;15.39;79.04;100806.13;5011158;28;20050;-45
2023/08/24 00:48:29;;;;;;;11.25;1.85;;;;;;;15.37;79.31;100809.31;5011486;28;20077;-45
2023/08/24 00:51:01;;;;;;;6.18;1.50;;;;;;;15.33;79.42;100808.44;5004929;28;20050;-46
2023/08/24 00:53:29;;;;;;;4.90;1.40;;;;;;;15.31;79.38;100799.66;5011680;28;20500;-49
2023/08/24 00:55:58;;;;;;;8.23;3.00;;;;;;;15.30;79.78;100791.69;5022998;28;20049;-45
2023/08/24 00:58:27;;;;;;;7.38;1.77;;;;;;;15.32;79.86;100787.34;5011267;28;20037;-46
2023/08/24 01:00:56;;;;;;;6.03;1.73;;;;;;;15.32;79.78;100794.88;5011304;28;20053;-47
2023/08/24 01:03:24;;;;;;;11.70;2.83;;;;;;;15.31;79.83;100796.06;5010255;28;20170;-46
2023/08/24 01:05:52;;;;;;;2.55;1.58;;;;;;;15.30;80.00;100794.47;5010434;28;20456;-45
2023/08/24 01:08:20;;;;;;;4.80;1.63;;;;;;;15.29;80.16;100801.22;5008903;28;20500;-45
2023/08/24 01:10:59;;;;;;;13.07;2.53;;;;;;;15.28;80.42;100794.81;5010908;28;20058;-45
2023/08/24 01:13:50;;;;;;;4.22;1.40;;;;;;;15.25;80.46;100799.16;5010107;28;20080;-45
2023/08/24 01:16:21;;;;;;;5.63;1.63;;;;;;;15.25;80.56;100795.56;5010043;28;20073;-47
2023/08/24 01:18:49;;;;;;;3.35;1.30;;;;;;;15.29;80.59;100801.22;5010181;28;20072;-45
2023/08/24 01:21:17;;;;;;;5.85;2.25;;;;;;;15.27;80.69;100789.63;5008778;28;20141;-45
2023/08/24 01:24:18;;;;;;;7.90;2.15;;;;;;;15.28;80.98;100786.47;5010500;28;20046;-45
2023/08/24 01:26:48;;;;;;;6.85;2.50;;;;;;;15.22;80.94;100790.78;5010145;28;20124;-47
2023/08/24 01:29:15;;;;;;;5.45;1.70;;;;;;;15.20;81.10;100793.91;5009265;28;20777;-45
2023/08/24 01:31:42;;;;;;;5.00;1.92;;;;;;;15.18;81.48;100795.47;5009788;28;20038;-45
2023/08/24 01:34:09;;;;;;;6.57;2.78;;;;;;;15.15;81.49;100791.44;5009759;28;20050;-45
2023/08/24 01:36:36;;;;;;;7.95;2.45;;;;;;;15.17;81.72;100791.06;5010119;28;20125;-46
2023/08/24 01:39:27;;;;;;;7.47;2.22;;;;;;;15.10;82.10;100783.41;5012258;28;20053;-46
2023/08/24 01:41:59;;;;;;;7.47;2.03;;;;;;;15.13;81.95;100776.28;5013558;28;20046;-46
2023/08/24 01:44:29;;;;;;;7.45;1.60;;;;;;;15.11;82.07;100782.25;5013774;28;20534;-46
2023/08/24 01:46:58;;;;;;;5.47;1.63;;;;;;;15.06;82.06;100784.53;5006771;28;20058;-47
2023/08/24 01:49:26;;;;;;;4.35;1.88;;;;;;;15.03;82.31;100783.31;5012121;28;20034;-47
2023/08/24 01:51:54;;;;;;;6.70;1.80;;;;;;;15.00;82.35;100783.25;5013161;28;20496;-45
2023/08/24 01:54:21;;;;;;;7.85;1.88;;;;;;;15.00;82.54;100772.09;5013039;28;20056;-45
2023/08/24 01:56:47;;;;;;;7.40;1.70;;;;;;;15.00;82.70;100767.31;5012895;28;20057;-46
2023/08/24 01:59:14;;;;;;;5.80;1.98;;;;;;;15.01;82.84;100768.91;5013071;28;20050;-47
2023/08/24 02:01:41;;;;;;;7.65;2.20;;;;;;;15.01;82.98;100768.91;4972648;28;1188583;-46
2023/08/24 02:04:08;;;;;;;6.50;1.42;;;;;;;15.00;83.02;100772.91;5013925;28;20050;-45
2023/08/24 02:06:35;;;;;;;5.10;2.05;;;;;;;15.00;83.14;100767.31;5013852;28;20042;-45
2023/08/24 02:09:02;;;;;;;6.95;2.10;;;;;;;14.96;83.05;100766.44;5013956;28;20157;-46
2023/08/24 02:11:29;;;;;;;7.72;2.15;;;;;;;14.93;83.52;100772.75;5014111;28;20554;-46
2023/08/24 02:13:56;;;;;;;7.38;1.83;;;;;;;14.93;83.59;100766.41;5013627;28;20057;-46
2023/08/24 02:16:23;;;;;;;5.13;2.15;;;;;;;14.92;83.47;100764.78;5013966;28;20049;-47
2023/08/24 02:18:49;;;;;;;4.80;1.75;;;;;;;14.93;83.55;100752.47;5013556;28;20042;-45
2023/08/24 02:21:16;;;;;;;5.50;1.58;;;;;;;14.89;83.81;100760.75;5014104;28;20057;-46
2023/08/24 02:23:43;;;;;;;7.90;2.00;;;;;;;14.90;83.97;100761.56;5013748;28;20046;-45
2023/08/24 02:26:10;;;;;;;3.45;1.58;;;;;;;14.88;83.93;100756.34;5013493;28;20451;-46
2023/08/24 02:28:37;;;;;;;5.97;1.55;;;;;;;14.86;83.96;100755.94;5013845;28;20042;-46
2023/08/24 02:31:05;;;;;;;5.57;1.60;;;;;;;14.85;84.08;100765.47;5013843;28;20474;-46
2023/08/24 02:33:32;;;;;;;7.35;2.10;;;;;;;14.83;84.46;100761.44;5013654;28;20061;-45
2023/08/24 02:35:59;;;;;;;4.78;1.58;;;;;;;14.81;84.53;100756.25;5013766;28;20559;-45
2023/08/24 02:38:28;;;;;;;10.63;2.38;;;;;;;14.75;84.61;100754.94;5013632;28;20056;-48
2023/08/24 02:41:05;;;;;;;6.63;1.55;;;;;;;14.74;84.79;100755.34;5013650;28;20196;-45
2023/08/24 02:43:33;;;;;;;4.35;1.30;;;;;;;14.74;84.92;100758.94;5013887;28;20057;-46
2023/08/24 02:46:04;;;;;;;7.50;2.20;;;;;;;14.75;84.94;100760.53;5013090;28;20046;-45
2023/08/24 02:48:32;;;;;;;5.15;2.70;;;;;;;14.74;84.96;100758.94;5012169;28;20447;-46
2023/08/24 02:51:00;;;;;;;5.35;1.65;;;;;;;14.68;85.18;100759.59;5012140;28;20148;-47
2023/08/24 02:53:27;;;;;;;7.05;1.70;;;;;;;14.69;85.17;100766.78;5013692;28;20816;-48
2023/08/24 02:55:54;;;;;;;7.80;1.35;;;;;;;14.70;85.41;100765.59;5012834;28;20054;-45
2023/08/24 02:58:22;;;;;;;7.43;1.58;;;;;;;14.69;85.34;100767.59;5013056;28;20045;-45
2023/08/24 03:00:49;;;;;;;6.70;1.75;;;;;;;14.66;85.47;100773.91;5049111;23;20055;-45
2023/08/24 03:03:34;;;;;;;7.63;1.73;;;;;;;14.64;85.57;100762.31;5013006;28;20045;-46
2023/08/24 03:06:03;;;;;;;4.80;1.63;;;;;;;14.58;85.95;100764.63;5013266;28;20056;-45
2023/08/24 03:08:31;;;;;;;2.83;1.65;;;;;;;14.57;85.79;100762.22;5013072;28;20140;-45
2023/08/24 03:10:59;;;;;;;4.93;1.67;;;;;;;14.51;86.35;100761.72;5013419;28;20081;-45
2023/08/24 03:13:27;;;;;;;8.43;2.00;;;;;;;14.50;86.22;100756.53;5012877;28;20045;-45
2023/08/24 03:15:54;;;;;;;3.22;1.50;;;;;;;14.52;86.44;100756.94;5013313;28;20050;-45
2023/08/24 03:18:21;;;;;;;3.97;1.77;;;;;;;14.54;86.31;100749.00;5012124;28;20073;-47
2023/08/24 03:20:49;;;;;;;7.30;1.80;;;;;;;14.51;86.58;100758.91;5012673;28;20116;-46
2023/08/24 03:23:16;;;;;;;8.48;2.00;;;;;;;14.51;86.64;100749.75;5012655;28;20069;-45
2023/08/24 03:25:43;;;;;;;8.80;3.08;;;;;;;14.50;86.75;100753.75;5012575;28;20042;-46
2023/08/24 03:28:10;;;;;;;6.82;2.13;;;;;;;14.49;86.82;100747.34;5013298;28;20048;-45
2023/08/24 03:30:39;;;;;;;6.45;1.65;;;;;;;14.45;87.14;100757.66;5001607;28;20050;-45
2023/08/24 03:33:06;;;;;;;9.48;1.90;;;;;;;14.48;86.99;100759.66;5007163;28;20487;-46
2023/08/24 03:35:33;;;;;;;5.30;2.72;;;;;;;14.48;87.23;100754.09;5012353;28;20065;-46
2023/08/24 03:38:00;;;;;;;4.35;1.83;;;;;;;14.47;87.34;100765.63;5012516;28;20125;-48
2023/08/24 03:40:27;;;;;;;7.28;2.28;;;;;;;14.44;87.22;100755.22;5012345;28;20046;-47
2023/08/24 03:42:54;;;;;;;4.97;1.50;;;;;;;14.40;87.29;100759.94;5012274;28;20041;-45
2023/08/24 03:45:21;;;;;;;4.57;1.60;;;;;;;14.40;87.56;100765.50;5012644;28;20038;-45
2023/08/24 03:47:48;;;;;;;8.65;3.35;;;;;;;14.38;87.52;100767.81;5011598;28;20057;-47
2023/08/24 03:50:16;;;;;;;4.38;1.67;;;;;;;14.34;87.70;100761.41;5012247;28;20096;-46
2023/08/24 03:52:43;;;;;;;4.47;1.75;;;;;;;14.32;87.82;100755.41;5012149;28;20100;-45
2023/08/24 03:55:10;;;;;;;4.50;2.28;;;;;;;14.31;87.86;100759.31;5011947;28;20042;-45
2023/08/24 03:57:40;;;;;;;7.00;1.85;;;;;;;14.26;87.94;100751.28;5016095;28;20084;-47
2023/08/24 04:00:10;;;;;;;7.13;2.08;;;;;;;14.17;88.02;100747.91;4999127;28;20049;-45
2023/08/24 04:02:38;;;;;;;3.40;1.65;;;;;;;14.11;88.36;100749.41;5012176;28;20053;-46
2023/08/24 04:05:05;;;;;;;3.45;1.75;;;;;;;14.13;88.35;100745.06;4994108;28;20507;-48
2023/08/24 04:07:36;;;;;;;5.53;1.95;;;;;;;14.09;88.47;100740.59;5012074;28;20065;-46
2023/08/24 04:10:06;;;;;;;4.22;1.40;;;;;;;14.08;88.42;100744.56;5011919;28;20479;-47
2023/08/24 04:12:33;;;;;;;5.40;1.70;;;;;;;14.09;88.11;100746.16;5011863;28;20058;-45
2023/08/24 04:15:00;;;;;;;3.17;1.45;;;;;;;14.04;88.36;100742.50;5012095;28;20049;-48
2023/08/24 04:17:27;;;;;;;8.60;4.28;;;;;;;14.00;88.69;100747.19;5011467;28;20052;-46
2023/08/24 04:19:54;;;;;;;8.23;2.13;;;;;;;13.98;88.57;100749.53;5011077;28;20045;-45
2023/08/24 04:22:20;;;;;;;8.63;1.95;;;;;;;13.96;88.81;100751.91;5011720;28;20042;-46
2023/08/24 04:24:47;;;;;;;3.78;1.60;;;;;;;13.93;88.94;100752.63;5011568;28;20050;-46
2023/08/24 04:27:14;;;;;;;3.55;1.35;;;;;;;13.92;88.94;100751.03;5011628;28;20050;-45
2023/08/24 04:29:41;;;;;;;6.13;1.83;;;;;;;13.93;88.72;100758.19;5011774;28;20121;-46
2023/08/24 04:32:08;;;;;;;8.27;1.88;;;;;;;13.89;88.64;100757.34;5011367;28;20060;-45
2023/08/24 04:34:34;;;;;;;3.80;1.98;;;;;;;13.80;88.69;100745.63;5011957;28;20048;-45
2023/08/24 04:37:02;;;;;;;6.43;2.03;;;;;;;13.77;88.94;100749.13;5011596;28;20037;-45
2023/08/24 04:39:30;;;;;;;7.28;1.85;;;;;;;13.76;88.82;100750.31;5011751;28;20037;-45
2023/08/24 04:41:57;;;;;;;6.55;1.77;;;;;;;13.73;89.10;100745.47;5011508;28;20056;-46
2023/08/24 04:44:27;;;;;;;5.40;1.80;;;;;;;13.68;88.99;100751.34;5011777;28;20088;-45
2023/08/24 04:46:54;;;;;;;7.13;1.50;;;;;;;13.66;89.04;100748.09;4986211;28;20434;-46
2023/08/24 04:49:20;;;;;;;8.25;1.80;;;;;;;13.64;89.04;100744.88;5011282;28;20041;-46
2023/08/24 04:51:47;;;;;;;4.95;2.20;;;;;;;13.62;89.11;100749.19;4994252;28;20404;-45
2023/08/24 04:54:14;;;;;;;2.75;1.77;;;;;;;13.58;89.01;100760.25;4993759;28;20514;-45
2023/08/24 04:56:41;;;;;;;6.03;1.80;;;;;;;13.53;89.33;100757.75;5011639;28;20049;-45
2023/08/24 04:59:08;;;;;;;5.35;1.80;;;;;;;13.54;89.01;100759.38;4993631;28;20065;-45
2023/08/24 05:01:35;;;;;;;6.40;2.30;;;;;;;13.53;89.29;100757.75;5010952;28;20065;-46
2023/08/24 05:04:02;;;;;;;8.15;2.22;;;;;;;13.50;89.13;100755.72;5010974;28;20046;-46
2023/08/24 05:06:29;;;;;;;3.67;1.60;;;;;;;13.49;88.87;100754.09;5011016;28;20037;-46
2023/08/24 05:08:56;;;;;;;4.10;1.27;;;;;;;13.45;88.98;100755.97;5012030;28;20435;-46
2023/08/24 05:11:26;;;;;;;6.25;1.80;;;;;;;13.43;88.66;100750.00;5011070;28;20050;-46
2023/08/24 05:13:55;;;;;;;5.43;1.27;;;;;;;13.42;88.66;100753.97;5012520;28;20057;-46
2023/08/24 05:16:23;;;;;;;9.18;1.92;;;;;;;13.40;88.80;100762.66;5015079;28;20042;-45
2023/08/24 05:18:50;;;;;;;4.63;1.95;;;;;;;13.36;88.31;100763.75;5015086;28;20496;-46
2023/08/24 05:21:16;;;;;;;7.63;1.90;;;;;;;13.33;88.36;100761.69;5014927;28;20038;-46
2023/08/24 05:23:43;;;;;;;4.85;1.58;;;;;;;13.29;88.11;100767.16;5015083;28;20092;-47
2023/08/24 05:26:10;;;;;;;6.05;1.63;;;;;;;13.25;88.36;100771.84;4997757;28;20488;-46
2023/08/24 05:28:37;;;;;;;4.68;1.30;;;;;;;13.26;88.32;100772.66;5014840;28;20053;-48
2023/08/24 05:31:03;;;;;;;2.30;1.25;;;;;;;13.27;88.50;100775.06;5014617;28;20050;-45
2023/08/24 05:33:30;;;;;;;7.78;3.50;;;;;;;13.27;88.45;100771.47;5014935;28;20141;-46
2023/08/24 05:35:58;;;;;;;7.78;3.08;;;;;;;13.26;88.31;100767.09;5013057;28;20080;-46
2023/08/24 05:38:25;;;;;;;6.78;1.55;;;;;;;13.20;88.71;100776.88;5013456;28;20045;-46
2023/08/24 05:40:52;;;;;;;4.15;1.33;;;;;;;13.19;88.85;100770.50;5014359;28;20053;-46
2023/08/24 05:43:19;;;;;;;7.75;2.63;;;;;;;13.21;89.01;100767.38;5015068;28;20050;-46
2023/08/24 05:45:48;;;;;;;6.57;1.73;;;;;;;13.18;89.15;100768.09;5014213;28;20080;-45
2023/08/24 05:48:15;;;;;;;6.05;1.65;;;;;;;13.13;89.16;100763.59;5014784;28;20050;-46
2023/08/24 05:50:45;;;;;;;5.82;2.38;;;;;;;13.15;89.23;100783.53;5014752;28;20056;-46
2023/08/24 05:53:12;;;;;;;4.53;1.58;;;;;;;13.20;89.35;100772.13;5014447;28;20046;-47
2023/08/24 05:55:39;;;;;;;6.75;2.17;;;;;;;13.25;89.42;100768.25;5014107;28;20038;-46
2023/08/24 05:58:06;;;;;;;4.85;1.90;;;;;;;13.28;89.16;100775.88;5014394;28;20136;-46
2023/08/24 06:00:33;;;;;;;5.32;1.80;;;;;;;13.28;89.18;100779.47;5014590;28;20048;-46
2023/08/24 06:03:00;;;;;;;5.15;1.65;;;;;;;13.32;89.04;100777.56;5013994;28;20053;-45
2023/08/24 06:05:27;;;;;;;8.02;1.60;;;;;;;13.34;89.21;100785.56;5009904;28;20104;-46
2023/08/24 06:07:54;;;;;;;6.78;1.80;;;;;;;13.36;89.24;100786.00;5013857;28;20049;-48
2023/08/24 06:10:22;;;;;;;2.08;1.38;;;;;;;13.34;89.05;100789.13;5015430;28;20046;-45
2023/08/24 06:12:49;;;;;;;6.50;1.83;;;;;;;13.34;89.22;100785.56;5021430;28;20053;-48
2023/08/24 06:15:16;;;;;;;5.20;1.90;;;;;;;13.31;89.27;100786.28;5013898;28;20137;-46
2023/08/24 06:17:43;;;;;;;4.03;1.65;;;;;;;13.30;89.65;100779.09;4996123;28;20046;-46
2023/08/24 06:20:10;;;;;;;5.03;1.40;;;;;;;13.29;89.50;100783.84;4996209;28;20053;-46
2023/08/24 06:22:37;;;;;;;8.18;3.30;;;;;;;13.32;89.59;100782.31;4997257;28;20435;-46
2023/08/24 06:25:05;;;;;;;6.22;1.95;;;;;;;13.33;89.68;100770.84;5013452;28;20050;-46
2023/08/24 06:27:31;;;;;;;2.92;1.50;;;;;;;13.34;89.75;100777.22;5013499;28;20145;-45
2023/08/24 06:29:58;;;;;;;4.88;1.85;;;;;;;13.35;89.56;100782.41;5010132;28;20063;-46
2023/08/24 06:32:25;;;;;;;6.50;2.10;;;;;;;13.30;89.60;100785.47;5008971;28;20109;-47
2023/08/24 06:34:52;;;;;;;5.75;2.08;;;;;;;13.28;89.86;100779.47;5014151;28;20077;-46
2023/08/24 06:37:18;;;;;;;11.70;2.90;;;;;;;13.27;90.00;100786.19;5013548;28;20034;-45
2023/08/24 06:39:45;;;;;;;5.20;1.88;;;;;;;13.30;90.32;100779.09;5013800;28;20061;-48
2023/08/24 06:42:12;;;;;;;4.97;1.63;;;;;;;13.29;90.49;100778.28;5013172;28;20059;-46
2023/08/24 06:44:39;;;;;;;8.57;2.10;;;;;;;13.30;90.28;100771.56;5013352;28;20073;-46
2023/08/24 06:47:06;;;;;;;4.63;1.73;;;;;;;13.33;90.53;100778.38;4995040;28;20136;-46
2023/08/24 06:49:32;;;;;;;3.25;2.10;;;;;;;13.32;90.75;100776.75;5012610;28;20041;-46
2023/08/24 06:52:00;;;;;;;5.55;2.35;;;;;;;13.32;90.91;100766.44;5013542;28;20042;-48
2023/08/24 06:54:26;;;;;;;4.47;1.60;;;;;;;13.35;90.79;100770.47;5013308;28;20060;-46
2023/08/24 06:56:54;;;;;;;7.38;2.33;;;;;;;13.42;90.91;100771.41;5013109;28;20467;-47
2023/08/24 06:59:21;;;;;;;8.13;1.90;;;;;;;13.45;90.88;100769.88;5017238;28;20507;-46
2023/08/24 07:01:48;;;;;;;4.35;1.98;;;;;;;13.45;90.77;100763.53;5015344;28;20058;-46
2023/08/24 07:04:15;;;;;;;5.55;2.15;;;;;;;13.47;90.81;100773.13;5012747;28;20045;-46
2023/08/24 07:06:43;;;;;;;9.00;3.33;;;;;;;13.46;90.74;100765.13;5011564;28;20056;-48
2023/08/24 07:09:11;;;;;;;8.55;2.58;;;;;;;13.40;90.62;100767.41;5013654;28;20052;-48
2023/08/24 07:11:38;;;;;;;5.07;2.22;;;;;;;13.46;90.92;100770.69;5012685;28;20057;-47
2023/08/24 07:14:05;;;;;;;6.53;2.55;;;;;;;13.49;90.84;100770.78;4995369;28;20063;-48
2023/08/24 07:16:31;;;;;;;8.27;3.00;;;;;;;13.49;90.67;100765.22;5012642;28;20042;-45
2023/08/24 07:18:58;;;;;;;5.80;2.47;;;;;;;13.51;90.36;100768.44;4995338;28;20493;-46
2023/08/24 07:21:25;;;;;;;7.35;3.00;;;;;;;13.52;90.20;100769.25;5012754;28;20046;-45
2023/08/24 07:23:52;;;;;;;5.90;2.40;;;;;;;13.57;90.30;100760.63;5013004;28;20507;-45
2023/08/24 07:26:19;;;;;;;6.13;2.70;;;;;;;13.61;90.27;100759.50;5013027;28;20088;-49
2023/08/24 07:28:46;;;;;;;5.18;2.50;;;;;;;13.63;90.16;100759.97;5012784;28;20487;-46
2023/08/24 07:31:15;;;;;;;6.80;2.45;;;;;;;13.68;90.03;100762.47;5011064;28;20045;-46
2023/08/24 07:33:45;;;;;;;5.28;2.33;;;;;;;13.72;89.65;100757.78;5012495;28;20049;-45
2023/08/24 07:36:12;;;;;;;4.90;2.47;;;;;;;13.76;89.69;100758.66;5010102;28;20038;-46
2023/08/24 07:38:38;;;;;;;7.55;2.28;;;;;;;13.80;89.27;100753.97;5010357;28;20052;-46
2023/08/24 07:41:06;;;;;;;7.25;2.38;;;;;;;13.87;88.88;100759.66;5009001;28;20045;-46
2023/08/24 07:43:33;;;;;;;8.05;1.67;;;;;;;13.92;88.95;100755.78;5017878;28;20045;-45
2023/08/24 07:46:00;;;;;;;4.88;1.63;;;;;;;13.98;88.66;100748.75;5012268;28;20038;-46
2023/08/24 07:48:27;;;;;;;6.93;1.90;;;;;;;14.06;88.60;100764.41;5012456;28;20070;-45
2023/08/24 07:50:54;;;;;;;2.85;1.73;;;;;;;14.10;88.01;100756.94;5012326;28;20049;-45
2023/08/24 07:53:21;;;;;;;5.75;1.42;;;;;;;14.14;87.98;100757.03;4994739;28;20540;-47
2023/08/24 07:55:47;;;;;;;6.72;1.60;;;;;;;14.14;87.11;100757.03;4978612;28;20060;-47
2023/08/24 07:58:14;;;;;;;4.65;1.63;;;;;;;14.15;87.20;100751.06;5012173;28;20459;-46
2023/08/24 08:00:41;;;;;;;6.32;1.85;;;;;;;14.22;87.38;100739.25;5012154;28;20397;-46
2023/08/24 08:03:08;;;;;;;6.55;1.85;;;;;;;14.28;87.04;100744.16;5011829;28;20065;-46
2023/08/24 08:05:35;;;;;;;6.97;0.90;;;;;;;14.36;87.15;100747.91;4994655;28;20125;-52
2023/08/24 08:08:02;;;;;;;2.72;1.38;;;;;;;14.44;87.03;100744.06;5011923;28;20052;-46
2023/08/24 08:10:28;;;;;;;3.63;1.23;;;;;;;14.52;87.49;100731.88;4994521;28;20403;-47
2023/08/24 08:12:55;;;;;;;5.80;1.90;;;;;;;14.62;88.25;100731.25;5010926;28;20132;-45
2023/08/24 08:15:22;;;;;;;8.45;2.90;;;;;;;14.75;88.74;100731.84;5011901;28;20045;-46
2023/08/24 08:17:49;;;;;;;5.65;1.40;;;;;;;14.90;89.52;100733.69;4978097;28;20085;-46
2023/08/24 08:20:17;;;;;;;2.65;0.80;;;;;;;15.01;90.02;100729.88;5011581;28;20045;-47
2023/08/24 08:22:44;;;;;;;9.38;1.67;;;;;;;15.21;90.90;100734.19;5011588;28;20050;-46
2023/08/24 08:25:12;;;;;;;4.30;1.48;;;;;;;15.42;91.66;100725.28;5011611;28;20503;-45
2023/08/24 08:27:39;;;;;;;3.35;1.27;;;;;;;15.74;92.52;100722.94;5011846;28;20053;-46
2023/08/24 08:30:06;;;;;;;9.20;1.38;;;;;;;16.07;92.82;100713.75;5011592;28;20604;-44
2023/08/24 08:32:33;;;;;;;3.60;0.82;;;;;;;16.38;91.53;100719.66;5012260;28;20112;-44
2023/08/24 08:35:01;;;;;;;5.07;1.13;;;;;;;16.71;90.55;100715.97;5022911;28;20128;-44
2023/08/24 08:37:28;;;;;;;3.97;0.93;;;;;;;17.32;89.24;100720.78;5010201;28;20122;-45
2023/08/24 08:39:54;;;;;;;5.65;1.13;;;;;;;17.99;85.42;100723.09;5011491;28;20104;-45
2023/08/24 08:42:22;;;;;;;9.27;3.25;;;;;;;18.27;81.70;100713.97;5010169;28;20140;-45
2023/08/24 08:44:49;;;;;;;13.52;2.40;;;;;;;18.93;79.97;100720.81;5011266;28;20495;-45
2023/08/24 08:47:20;;;;;;;4.53;0.95;;;;;;;19.73;75.57;100727.44;5010621;28;20786;-48
2023/08/24 08:49:48;;;;;;;3.60;1.00;;;;;;;20.47;72.56;100729.88;5012094;28;20057;-44
2023/08/24 08:52:15;;;;;;;4.60;1.30;;;;;;;21.48;69.99;100735.00;5011068;28;20054;-46
2023/08/24 08:54:42;;;;;;;5.65;0.70;;;;;;;22.34;66.51;100737.13;5010756;28;20480;-44
2023/08/24 08:57:10;;;;;;;2.88;0.90;;;;;;;22.88;63.81;100737.09;5010665;28;20038;-45
2023/08/24 08:59:37;;;;;;;2.22;0.60;;;;;;;22.56;61.42;100746.06;5011339;28;20145;-45
2023/08/24 09:02:05;;;;;;;3.17;0.80;;;;;;;22.86;60.45;100733.91;5010446;28;20065;-47
2023/08/24 09:04:33;;;;;;;3.85;0.90;;;;;;;23.33;58.46;100743.13;5010768;28;20466;-46
2023/08/24 09:07:07;;;;;;;3.60;0.77;;;;;;;23.94;57.14;100738.72;5015627;28;20037;-45
2023/08/24 09:09:34;;;;;;;6.97;1.30;;;;;;;24.45;55.41;100731.53;5018260;28;20057;-45
2023/08/24 09:12:03;;;;;;;5.03;0.90;;;;;;;24.96;53.69;100735.56;4993529;28;20056;-45
2023/08/24 09:14:30;;;;;;;9.35;0.82;;;;;;;25.21;51.44;100749.06;5009565;28;20053;-44
2023/08/24 09:16:57;;;;;;;3.92;0.98;;;;;;;25.09;50.74;100738.47;4997923;28;20562;-45
2023/08/24 09:19:31;;;;;;;4.45;0.95;;;;;;;25.19;51.16;100734.53;5010749;28;20052;-45
2023/08/24 09:21:58;;;;;;;7.55;1.27;;;;;;;25.65;49.09;100736.16;4993523;28;20050;-45
2023/08/24 09:24:35;;;;;;;1.88;0.75;;;;;;;26.00;48.92;100738.72;5011164;28;20058;-47
2023/08/24 09:27:17;;;;;;;3.58;0.77;;;;;;;25.59;49.07;100735.09;5010562;28;20038;-44
2023/08/24 09:29:52;;;;;;;7.15;0.70;;;;;;;25.86;47.70;100733.50;5009814;28;20054;-47
2023/08/24 09:32:23;;;;;;;11.05;0.90;;;;;;;25.94;46.87;100732.03;5004046;28;20038;-46
2023/08/24 09:34:50;;;;;;;3.03;0.98;;;;;;;24.88;46.67;100734.16;4998611;28;20591;-46
2023/08/24 09:37:17;;;;;;;3.70;1.23;;;;;;;24.13;47.74;100728.63;5009065;28;20049;-48
2023/08/24 09:39:44;;;;;;;1.50;0.52;;;;;;;24.73;46.62;100727.19;5010339;28;20084;-45
2023/08/24 09:42:12;;;;;;;2.90;0.50;;;;;;;25.29;44.72;100722.13;5024025;28;20104;-46
2023/08/24 09:44:45;;;;;;;4.03;0.80;;;;;;;25.74;44.32;100717.22;5010762;28;20050;-45
2023/08/24 09:47:12;;;;;;;3.55;0.88;;;;;;;25.89;43.50;100726.91;5010457;28;20044;-44
2023/08/24 09:49:39;;;;;;;4.75;0.93;;;;;;;26.17;43.48;100725.28;5010879;28;20096;-45
2023/08/24 09:52:08;;;;;;;2.70;0.57;;;;;;;26.54;41.90;100718.03;5010172;28;20049;-45
2023/08/24 09:54:38;;;;;;;2.33;0.98;;;;;;;26.90;42.07;100714.84;5010466;28;20443;-45
2023/08/24 09:57:09;;;;;;;5.15;1.10;;;;;;;27.30;41.37;100723.59;5009960;28;20597;-44
2023/08/24 09:59:39;;;;;;;6.32;0.70;;;;;;;27.28;41.05;100709.03;5012767;28;20212;-44
2023/08/24 10:02:15;;;;;;;8.40;2.65;;;;;;;26.33;41.29;100710.19;5005329;28;20046;-44
2023/08/24 10:04:43;;;;;;;11.32;0.93;;;;;;;25.05;42.71;100706.59;5013663;28;20042;-45
2023/08/24 10:07:14;;;;;;;3.35;0.55;;;;;;;24.38;43.81;100706.25;5012616;28;20050;-45
2023/08/24 10:09:48;;;;;;;7.50;0.80;;;;;;;23.60;44.33;100707.13;5013724;28;20077;-45
2023/08/24 10:12:20;;;;;;;8.50;0.93;;;;;;;22.97;45.49;100714.75;5014063;28;20046;-46
2023/08/24 10:15:03;;;;;;;3.67;0.65;;;;;;;23.39;45.13;100708.34;5014345;28;20054;-44
2023/08/24 10:17:32;;;;;;;1.70;0.50;;;;;;;24.32;44.38;100707.19;5013592;28;20050;-44
2023/08/24 10:20:08;;;;;;;3.05;0.73;;;;;;;25.21;42.36;100703.72;5013485;28;20050;-44
2023/08/24 10:22:36;;;;;;;2.47;0.60;;;;;;;25.63;41.99;100715.97;5013826;28;20045;-44
2023/08/24 10:25:03;;;;;;;3.08;0.50;;;;;;;25.37;41.81;100706.50;5000463;28;20045;-45
2023/08/24 10:27:31;;;;;;;6.65;0.93;;;;;;;24.95;42.08;100699.97;5013389;28;20038;-45
2023/08/24 10:30:01;;;;;;;8.43;1.02;;;;;;;24.98;41.53;100703.94;5013263;28;20046;-44
2023/08/24 10:32:29;;;;;;;2.97;0.68;;;;;;;24.35;42.42;100712.78;5012843;28;20145;-44
2023/08/24 10:34:57;;;;;;;0.82;0.45;;;;;;;24.18;42.89;100709.13;5013373;28;20060;-44
2023/08/24 10:37:27;;;;;;;1.98;0.40;;;;;;;24.69;41.95;100704.66;5010753;28;20506;-45
2023/08/24 10:39:54;;;;;;;3.05;0.60;;;;;;;25.12;41.01;100709.25;5013351;28;20095;-44
2023/08/24 10:42:21;;;;;;;4.45;0.82;;;;;;;24.45;41.66;100716.56;5013069;28;20104;-44
2023/08/24 10:44:49;;;;;;;2.15;0.60;;;;;;;23.78;42.58;100696.22;5013349;28;20045;-47
2023/08/24 10:47:19;;;;;;;1.25;0.30;;;;;;;23.61;42.37;100695.41;5013432;28;20085;-46
2023/08/24 10:49:55;;;;;;;3.05;0.82;;;;;;;23.69;42.33;100693.22;5012569;28;20073;-45
2023/08/24 10:52:29;;;;;;;1.98;1.15;;;;;;;23.91;41.99;100690.69;5013068;28;20050;-44
2023/08/24 10:55:01;;;;;;;2.60;0.43;;;;;;;23.97;42.01;100680.47;5013111;28;20045;-44
2023/08/24 10:57:36;;;;;;;3.05;0.52;;;;;;;23.96;42.65;100678.91;5012817;28;20048;-44
2023/08/24 11:00:08;;;;;;;3.50;0.43;;;;;;;23.88;43.14;100683.13;5013116;28;20053;-44
2023/08/24 11:02:42;;;;;;;3.25;0.50;;;;;;;23.58;43.83;100682.13;5012562;28;20050;-45
2023/08/24 11:05:16;;;;;;;4.15;0.77;;;;;;;23.23;44.98;100670.69;5012332;28;20045;-44
2023/08/24 11:08:00;;;;;;;4.40;1.80;;;;;;;23.16;45.60;100668.81;5020091;28;20046;-44
2023/08/24 11:10:48;;;;;;;2.15;0.50;;;;;;;22.78;45.81;100673.16;5011720;28;20095;-45
2023/08/24 11:13:19;;;;;;;5.00;0.70;;;;;;;22.13;46.71;100661.31;5010718;28;20454;-44
2023/08/24 11:15:47;;;;;;;2.80;0.40;;;;;;;21.91;47.17;100665.66;5012431;28;20506;-44
2023/08/24 11:18:28;;;;;;;5.65;0.50;;;;;;;21.65;47.47;100655.91;5012243;28;20492;-44
2023/08/24 11:21:06;;;;;;;3.53;0.80;;;;;;;21.36;47.78;100656.69;5012393;28;20046;-45
2023/08/24 11:23:34;;;;;;;1.95;0.40;;;;;;;21.35;47.65;100657.91;5003606;28;20073;-45
2023/08/24 11:26:01;;;;;;;1.80;0.50;;;;;;;21.28;48.00;100666.44;5012665;28;20100;-44
2023/08/24 11:28:30;;;;;;;1.85;0.30;;;;;;;21.05;48.69;100653.78;5012427;28;20077;-43
2023/08/24 11:30:58;;;;;;;2.13;0.40;;;;;;;20.78;48.97;100654.88;5012337;28;20046;-43